首页
METAR-TAF:

METAR-TAF

机场 :

拉姆施泰因空军基地, 德国

纬度: 49-26N, 经度: 007-36E, 海拔: 238米

当前天气观测

该预报发布于28分钟前的13:56 UTC
风速7节,风向西转西南
温度 22°C
湿度 46%
气压 1017 hPa
能见度10公里或以上
天空无云

METAR: ETAR 041356Z AUTO 24007KT 9999 CLR 22/10 A3003 RMK AO2 SLP167 T02200098 FZRANO

时间: 16:24 (14:24 UTC)

预报

该预报发布于4小时和24分钟前的10:00 UTC
预报有效从04日的 10点(UTC)到 05日的 16点(UTC)
风速9节,风向北转东北
能见度10公里或以上
少量云层高于5000英尺
散云层高于7000英尺
成为
从 04日的 16点(UTC)到 04日的 17点(UTC)
风速6节,风向多变
能见度10公里或以上
多云层高于6000英尺
成为
从 05日的 02点(UTC)到 05日的 03点(UTC)
风速6节,风向多变
能见度10公里或以上
散云层高于6000英尺
成为
从 05日的 06点(UTC)到 05日的 07点(UTC)
风速9节,风向西转西南
能见度10公里或以上
少量云层高于6000英尺

TAF: ETAR 041000Z 0410/0516 02009KT 9999 FEW050 SCT070 620802 QNH3002INS BECMG 0416/0417 VRB06KT 9999 BKN060 QNH3005INS BECMG 0502/0503 VRB06KT 9999 SCT060 QNH3007INS BECMG 0506/0507 25009KT 9999 FEW060 QNH3008INS TX24/0415Z TN10/0504Z

超过4000个机场的气象观测和天气预报(METAR&TAF报告)。

可查询的气象台以黄色和红色小点在地图上表示。

将鼠标移到小点上方,可查看气象台名称。

然后点击查看天气观测和预报。

如需切换地图:点击带黑十字的绿色按钮放大地图;点击带横线的绿色按钮缩小地图;或者点击绿色箭头查看邻近地区的地图。


METAR-TAF: